createdAt,value
2023-05-10T00:00:01.653Z,12.46
2023-05-10T00:02:28.289Z,12.46
2023-05-10T00:04:54.791Z,12.47
2023-05-10T00:07:21.163Z,12.48
2023-05-10T00:09:47.609Z,12.47
2023-05-10T00:12:14.127Z,12.45
2023-05-10T00:14:40.510Z,12.47
2023-05-10T00:17:06.897Z,12.47
2023-05-10T00:19:33.477Z,12.46
2023-05-10T00:21:59.877Z,12.44
2023-05-10T00:24:26.270Z,12.44
2023-05-10T00:26:52.645Z,12.44
2023-05-10T00:29:19.053Z,12.44
2023-05-10T00:31:45.565Z,12.45
2023-05-10T00:34:12.033Z,12.46
2023-05-10T00:36:38.517Z,12.46
2023-05-10T00:39:04.961Z,12.47
2023-05-10T00:41:34.757Z,12.47
2023-05-10T00:44:02.928Z,12.46
2023-05-10T00:46:29.743Z,12.46
2023-05-10T00:48:56.399Z,12.45
2023-05-10T00:51:23.446Z,12.45
2023-05-10T00:53:50.514Z,12.44
2023-05-10T00:56:17.425Z,12.44
2023-05-10T00:58:44.107Z,12.45
2023-05-10T01:01:10.816Z,12.45
2023-05-10T01:03:37.561Z,12.44
2023-05-10T01:06:04.431Z,12.46
2023-05-10T01:08:30.869Z,12.45
2023-05-10T01:10:57.821Z,12.45
2023-05-10T01:13:33.902Z,12.45
2023-05-10T01:16:03.039Z,12.44
2023-05-10T01:18:31.668Z,12.44
2023-05-10T01:21:28.418Z,12.43
2023-05-10T01:24:18.784Z,12.43
2023-05-10T01:27:15.732Z,12.42
2023-05-10T01:30:15.632Z,12.40
2023-05-10T01:33:01.133Z,12.37
2023-05-10T01:35:52.749Z,12.33
2023-05-10T01:38:56.235Z,12.30
2023-05-10T01:41:50.482Z,12.30
2023-05-10T01:45:01.115Z,12.32
2023-05-10T01:47:27.460Z,12.36
2023-05-10T01:49:56.682Z,12.38
2023-05-10T01:52:29.813Z,12.38
2023-05-10T01:55:10.044Z,12.34
2023-05-10T01:57:40.520Z,12.34
2023-05-10T02:00:08.815Z,12.34
2023-05-10T02:02:39.784Z,12.33
2023-05-10T02:05:07.542Z,12.30
2023-05-10T02:07:38.011Z,12.28
2023-05-10T02:10:06.949Z,12.31
2023-05-10T02:12:36.994Z,12.33
2023-05-10T02:15:06.638Z,12.36
2023-05-10T02:17:34.001Z,12.35
2023-05-10T02:20:02.161Z,12.39
2023-05-10T02:22:29.524Z,12.38
2023-05-10T02:24:58.892Z,12.39
2023-05-10T02:27:28.243Z,12.38
2023-05-10T02:29:55.565Z,12.36
2023-05-10T02:32:24.516Z,12.32
2023-05-10T02:34:52.922Z,12.30
2023-05-10T02:37:23.661Z,12.29
2023-05-10T02:39:51.755Z,12.31
2023-05-10T02:42:20.707Z,12.30
2023-05-10T02:44:50.805Z,12.29
2023-05-10T02:47:18.984Z,12.29
2023-05-10T02:49:45.688Z,12.28
2023-05-10T02:52:20.241Z,12.24
2023-05-10T02:54:51.702Z,12.21
2023-05-10T02:57:35.254Z,12.18
2023-05-10T03:00:03.959Z,12.17
2023-05-10T03:02:31.800Z,12.08
2023-05-10T03:04:58.506Z,12.07
2023-05-10T03:07:25.091Z,12.03
2023-05-10T03:09:51.878Z,11.95
2023-05-10T03:12:55.970Z,11.91
2023-05-10T03:15:45.693Z,11.82
2023-05-10T03:18:22.391Z,11.81
2023-05-10T03:20:51.318Z,11.80
2023-05-10T03:23:28.373Z,11.80
2023-05-10T03:25:55.399Z,11.78
2023-05-10T03:28:22.718Z,11.80
2023-05-10T03:30:50.520Z,11.79
2023-05-10T03:33:16.988Z,11.80
2023-05-10T03:35:45.073Z,11.76
2023-05-10T03:38:11.465Z,11.76
2023-05-10T03:40:38.233Z,11.76
2023-05-10T03:43:05.058Z,11.77
2023-05-10T03:45:31.909Z,11.80
2023-05-10T03:47:59.274Z,11.82
2023-05-10T03:50:26.028Z,11.83
2023-05-10T03:52:54.560Z,11.84
2023-05-10T03:55:21.380Z,11.88
2023-05-10T03:57:50.430Z,11.89
2023-05-10T04:00:17.469Z,11.90
2023-05-10T04:02:45.888Z,11.90
2023-05-10T04:05:12.692Z,11.92
2023-05-10T04:07:39.094Z,11.91
2023-05-10T04:10:06.127Z,11.92
2023-05-10T04:12:32.513Z,11.92
2023-05-10T04:14:58.860Z,11.91
2023-05-10T04:17:25.280Z,11.91
2023-05-10T04:19:54.020Z,11.88
2023-05-10T04:22:20.445Z,11.91
2023-05-10T04:24:46.839Z,11.90
2023-05-10T04:27:13.240Z,11.91
2023-05-10T04:29:39.669Z,11.93
2023-05-10T04:32:06.095Z,11.95
2023-05-10T04:34:34.993Z,11.98
2023-05-10T04:37:01.586Z,11.95
2023-05-10T04:39:28.089Z,11.92
2023-05-10T04:41:54.515Z,11.94
2023-05-10T04:44:20.907Z,11.94
2023-05-10T04:46:47.386Z,11.97
2023-05-10T04:49:14.032Z,11.98
2023-05-10T04:51:40.504Z,11.96
2023-05-10T04:54:07.086Z,11.96
2023-05-10T04:56:33.857Z,11.97
2023-05-10T04:59:00.442Z,11.95
2023-05-10T05:01:27.080Z,11.96
2023-05-10T05:03:54.033Z,11.97
2023-05-10T05:06:21.888Z,11.98
2023-05-10T05:08:50.129Z,12.01
2023-05-10T05:11:16.745Z,12.00
2023-05-10T05:13:43.150Z,12.04
2023-05-10T05:16:09.573Z,12.03
2023-05-10T05:18:35.926Z,12.08
2023-05-10T05:21:02.381Z,12.12
2023-05-10T05:23:28.767Z,12.11
2023-05-10T05:25:55.353Z,12.16
2023-05-10T05:28:21.908Z,12.20
2023-05-10T05:30:48.323Z,12.19
2023-05-10T05:33:16.378Z,12.16
2023-05-10T05:35:45.668Z,12.16
2023-05-10T05:38:12.279Z,12.20
2023-05-10T05:40:38.764Z,12.23
2023-05-10T05:43:05.157Z,12.22
2023-05-10T05:45:31.810Z,12.26
2023-05-10T05:47:58.265Z,12.27
2023-05-10T05:50:24.742Z,12.22
2023-05-10T05:52:51.285Z,12.23
2023-05-10T05:55:18.760Z,12.23
2023-05-10T05:57:45.409Z,12.20
2023-05-10T06:00:12.207Z,12.19
2023-05-10T06:02:38.675Z,12.19
2023-05-10T06:05:05.594Z,12.17
2023-05-10T06:07:31.991Z,12.12
2023-05-10T06:09:58.554Z,12.11
2023-05-10T06:12:24.925Z,12.08
2023-05-10T06:14:51.414Z,12.06
2023-05-10T06:17:17.830Z,12.01
2023-05-10T06:19:44.276Z,11.99
2023-05-10T06:22:10.932Z,11.96
2023-05-10T06:24:37.288Z,11.99
2023-05-10T06:27:05.053Z,12.03
2023-05-10T06:29:31.847Z,12.06
2023-05-10T06:31:58.345Z,12.11
2023-05-10T06:34:25.098Z,12.21
2023-05-10T06:36:51.479Z,12.25
2023-05-10T06:39:18.071Z,12.29
2023-05-10T06:41:44.491Z,12.32
2023-05-10T06:44:10.878Z,12.29
2023-05-10T06:46:37.425Z,12.22
2023-05-10T06:49:04.348Z,12.22
2023-05-10T06:51:30.773Z,12.28
2023-05-10T06:53:57.246Z,12.33
2023-05-10T06:56:23.855Z,12.36
2023-05-10T06:58:50.346Z,12.33
2023-05-10T07:01:16.940Z,12.31
2023-05-10T07:03:43.433Z,12.35
2023-05-10T07:06:21.715Z,12.36
2023-05-10T07:08:56.703Z,12.44
2023-05-10T07:11:23.314Z,12.43
2023-05-10T07:13:49.694Z,12.39
2023-05-10T07:16:16.233Z,12.38
2023-05-10T07:18:42.650Z,12.40
2023-05-10T07:21:09.610Z,12.48
2023-05-10T07:23:36.203Z,12.54
2023-05-10T07:26:03.246Z,12.55
2023-05-10T07:28:29.937Z,12.53
2023-05-10T07:30:56.605Z,12.57
2023-05-10T07:33:23.131Z,12.55
2023-05-10T07:35:50.718Z,12.51
2023-05-10T07:38:18.367Z,12.53
2023-05-10T07:40:44.859Z,12.61
2023-05-10T07:43:11.249Z,12.68
2023-05-10T07:45:37.753Z,12.74
2023-05-10T07:48:04.259Z,12.82
2023-05-10T07:50:30.766Z,12.92
2023-05-10T07:52:57.541Z,13.03
2023-05-10T07:55:24.097Z,13.04
2023-05-10T07:57:50.657Z,13.12
2023-05-10T08:00:21.398Z,13.15
2023-05-10T08:02:48.483Z,13.17
2023-05-10T08:05:15.679Z,13.19
2023-05-10T08:07:43.347Z,13.13
2023-05-10T08:10:11.925Z,13.10
2023-05-10T08:12:39.285Z,13.08
2023-05-10T08:15:06.477Z,13.02
2023-05-10T08:17:33.509Z,13.02
2023-05-10T08:19:59.931Z,13.05
2023-05-10T08:22:27.014Z,13.03
2023-05-10T08:24:53.486Z,13.06
2023-05-10T08:27:19.933Z,13.00
2023-05-10T08:29:50.108Z,13.06
2023-05-10T08:32:16.731Z,13.09
2023-05-10T08:34:43.227Z,13.17
2023-05-10T08:37:09.738Z,13.15
2023-05-10T08:39:36.835Z,13.07
2023-05-10T08:42:05.719Z,13.09
2023-05-10T08:44:33.593Z,13.18
2023-05-10T08:47:03.429Z,13.19
2023-05-10T08:49:32.554Z,13.31
2023-05-10T08:52:04.099Z,13.36
2023-05-10T08:54:32.400Z,13.35
2023-05-10T08:56:59.143Z,13.25
2023-05-10T08:59:25.902Z,13.34
2023-05-10T09:01:54.546Z,13.36
2023-05-10T09:04:21.966Z,13.56
2023-05-10T09:06:48.908Z,13.70
2023-05-10T09:09:17.013Z,13.87
2023-05-10T09:11:44.348Z,13.95
2023-05-10T09:14:11.228Z,14.04
2023-05-10T09:16:37.760Z,14.29
2023-05-10T09:19:04.621Z,14.37
2023-05-10T09:21:32.450Z,14.52
2023-05-10T09:24:03.985Z,14.82
2023-05-10T09:26:30.610Z,14.91
2023-05-10T09:28:59.432Z,14.97
2023-05-10T09:31:45.726Z,15.06
2023-05-10T09:34:12.137Z,15.32
2023-05-10T09:36:51.629Z,15.47
2023-05-10T09:39:18.927Z,15.63
2023-05-10T09:41:45.365Z,15.68
2023-05-10T09:44:11.724Z,15.75
2023-05-10T09:46:38.321Z,15.88
2023-05-10T09:49:06.472Z,16.07
2023-05-10T09:51:35.066Z,16.22
2023-05-10T09:54:16.885Z,16.30
2023-05-10T09:56:44.022Z,16.20
2023-05-10T09:59:12.489Z,16.00
2023-05-10T10:01:39.906Z,15.84
2023-05-10T10:04:08.583Z,15.70
2023-05-10T10:06:41.385Z,15.49
2023-05-10T10:09:08.525Z,15.42
2023-05-10T10:11:39.736Z,15.48
2023-05-10T10:14:06.555Z,15.48
2023-05-10T10:16:33.687Z,15.53
2023-05-10T10:19:00.365Z,15.67
2023-05-10T10:21:27.773Z,15.59
2023-05-10T10:23:54.190Z,15.61
2023-05-10T10:26:22.028Z,15.66
2023-05-10T10:29:23.583Z,15.68
2023-05-10T10:31:54.614Z,15.58
2023-05-10T10:34:28.148Z,15.53
2023-05-10T10:36:56.376Z,15.51
2023-05-10T10:39:25.978Z,15.46
2023-05-10T10:41:55.240Z,15.56
2023-05-10T10:44:37.789Z,15.65
2023-05-10T10:47:15.247Z,15.71
2023-05-10T10:49:45.005Z,15.74
2023-05-10T10:52:17.347Z,15.78
2023-05-10T10:54:54.652Z,15.52
2023-05-10T10:57:22.686Z,15.63
2023-05-10T10:59:49.840Z,15.68
2023-05-10T11:02:46.752Z,15.75
2023-05-10T11:05:28.545Z,15.85
2023-05-10T11:07:56.316Z,15.93
2023-05-10T11:10:24.146Z,15.86
2023-05-10T11:13:04.298Z,15.82
2023-05-10T11:15:32.798Z,15.81
2023-05-10T11:18:00.125Z,15.70
2023-05-10T11:20:34.418Z,15.61
2023-05-10T11:23:13.916Z,15.63
2023-05-10T11:25:47.581Z,15.70
2023-05-10T11:28:14.159Z,15.84
2023-05-10T11:30:42.061Z,16.01
2023-05-10T11:33:09.885Z,16.17
2023-05-10T11:35:43.194Z,16.34
2023-05-10T11:38:11.921Z,16.58
2023-05-10T11:40:39.548Z,16.80
2023-05-10T11:43:09.428Z,16.98
2023-05-10T11:45:37.031Z,17.51
2023-05-10T11:48:03.908Z,17.79
2023-05-10T11:50:30.645Z,17.82
2023-05-10T11:52:58.137Z,17.67
2023-05-10T11:55:27.501Z,17.43
2023-05-10T11:58:02.517Z,17.45
2023-05-10T12:00:29.813Z,17.30
2023-05-10T12:02:56.589Z,17.14
2023-05-10T12:05:23.659Z,16.96
2023-05-10T12:07:50.090Z,16.86
2023-05-10T12:10:18.302Z,16.77
2023-05-10T12:12:46.858Z,16.65
2023-05-10T12:15:19.674Z,16.67
2023-05-10T12:17:47.353Z,16.88
2023-05-10T12:20:16.458Z,17.07
2023-05-10T12:22:55.552Z,17.09
2023-05-10T12:25:24.099Z,17.26
2023-05-10T12:27:56.029Z,17.32
2023-05-10T12:30:28.396Z,17.48
2023-05-10T12:32:59.978Z,17.66
2023-05-10T12:35:26.823Z,17.78
2023-05-10T12:37:53.202Z,17.82
2023-05-10T12:40:19.779Z,17.98
2023-05-10T12:42:46.327Z,18.17
2023-05-10T12:45:13.169Z,18.00
2023-05-10T12:47:42.212Z,18.07
2023-05-10T12:50:10.652Z,18.24
2023-05-10T12:52:37.090Z,18.29
2023-05-10T12:55:04.117Z,18.44
2023-05-10T12:57:30.695Z,18.39
2023-05-10T12:59:57.121Z,18.19
2023-05-10T13:02:24.085Z,18.03
2023-05-10T13:04:51.205Z,17.95
2023-05-10T13:07:17.776Z,17.88
2023-05-10T13:09:44.461Z,17.77
2023-05-10T13:12:10.916Z,17.65
2023-05-10T13:14:37.341Z,17.51
2023-05-10T13:17:03.799Z,17.01
2023-05-10T13:19:30.545Z,16.66
2023-05-10T13:21:57.029Z,16.15
2023-05-10T13:24:23.781Z,15.75
2023-05-10T13:26:50.338Z,15.34
2023-05-10T13:29:18.892Z,15.13
2023-05-10T13:31:45.323Z,14.94
2023-05-10T13:34:12.053Z,14.61
2023-05-10T13:36:39.081Z,14.42
2023-05-10T13:39:06.284Z,14.41
2023-05-10T13:41:32.822Z,14.31
2023-05-10T13:43:59.236Z,14.30
2023-05-10T13:46:25.686Z,14.21
2023-05-10T13:48:52.106Z,14.18
2023-05-10T13:51:18.633Z,14.15
2023-05-10T13:53:45.016Z,14.18
2023-05-10T13:56:11.419Z,14.05
2023-05-10T13:58:37.983Z,13.95
2023-05-10T14:01:05.785Z,13.91
2023-05-10T14:03:32.308Z,13.93
2023-05-10T14:05:58.976Z,13.93
2023-05-10T14:08:25.400Z,14.01
2023-05-10T14:10:53.218Z,14.01
2023-05-10T14:13:19.632Z,14.07
2023-05-10T14:15:46.047Z,14.20
2023-05-10T14:18:12.481Z,14.24
2023-05-10T14:20:38.878Z,14.19
2023-05-10T14:23:05.289Z,14.27
2023-05-10T14:25:31.895Z,14.27
2023-05-10T14:27:58.263Z,14.23
2023-05-10T14:30:24.657Z,14.17
2023-05-10T14:32:51.198Z,13.98
2023-05-10T14:35:19.392Z,13.95
2023-05-10T14:37:46.428Z,13.99
2023-05-10T14:40:13.332Z,14.01
2023-05-10T14:42:39.720Z,14.13
2023-05-10T14:45:06.565Z,14.23
2023-05-10T14:47:33.166Z,14.28
2023-05-10T14:49:59.588Z,14.32
2023-05-10T14:52:26.664Z,14.29
2023-05-10T14:54:53.137Z,14.30
2023-05-10T14:57:19.485Z,14.33
2023-05-10T14:59:45.848Z,14.48
2023-05-10T15:02:13.610Z,14.58
2023-05-10T15:04:40.361Z,14.69
2023-05-10T15:07:07.127Z,14.74
2023-05-10T15:09:33.523Z,14.80
2023-05-10T15:11:59.869Z,14.87
2023-05-10T15:14:26.210Z,14.88
2023-05-10T15:16:52.615Z,14.86
2023-05-10T15:19:18.997Z,14.89
2023-05-10T15:21:45.984Z,15.04
2023-05-10T15:24:12.432Z,15.17
2023-05-10T15:26:38.836Z,15.22
2023-05-10T15:29:05.200Z,15.34
2023-05-10T15:31:31.973Z,15.46
2023-05-10T15:34:01.789Z,15.52
2023-05-10T15:36:28.277Z,15.62
2023-05-10T15:38:55.129Z,15.69
2023-05-10T15:41:21.820Z,15.70
2023-05-10T15:43:48.207Z,15.60
2023-05-10T15:46:14.703Z,15.58
2023-05-10T15:48:41.186Z,15.72
2023-05-10T15:51:07.652Z,15.72
2023-05-10T15:53:34.094Z,15.86
2023-05-10T15:56:00.589Z,15.94
2023-05-10T15:58:27.034Z,15.91
2023-05-10T16:00:53.513Z,15.87
2023-05-10T16:03:19.912Z,15.89
2023-05-10T16:05:46.615Z,15.94
2023-05-10T16:08:13.225Z,15.98
2023-05-10T16:10:39.842Z,16.12
2023-05-10T16:13:06.293Z,16.19
2023-05-10T16:15:32.914Z,16.16
2023-05-10T16:17:59.880Z,16.10
2023-05-10T16:20:26.961Z,15.95
2023-05-10T16:22:53.414Z,15.87
2023-05-10T16:25:20.120Z,15.95
2023-05-10T16:27:46.763Z,15.86
2023-05-10T16:30:13.340Z,15.85
2023-05-10T16:32:39.752Z,15.66
2023-05-10T16:35:07.037Z,15.60
2023-05-10T16:37:33.466Z,15.63
2023-05-10T16:39:59.823Z,15.74
2023-05-10T16:42:28.133Z,15.69
2023-05-10T16:44:54.895Z,15.66
2023-05-10T16:47:21.274Z,15.76
2023-05-10T16:49:47.674Z,16.02
2023-05-10T16:52:14.071Z,16.13
2023-05-10T16:54:40.446Z,16.24
2023-05-10T16:57:07.367Z,16.26
2023-05-10T16:59:33.971Z,16.30
2023-05-10T17:02:00.569Z,16.45
2023-05-10T17:04:27.000Z,16.67
2023-05-10T17:06:53.339Z,16.49
2023-05-10T17:09:20.685Z,16.39
2023-05-10T17:11:47.360Z,16.38
2023-05-10T17:14:13.864Z,16.26
2023-05-10T17:16:40.306Z,16.20
2023-05-10T17:19:06.964Z,16.25
2023-05-10T17:21:33.398Z,16.33
2023-05-10T17:24:05.844Z,16.34
2023-05-10T17:26:32.324Z,16.27
2023-05-10T17:28:58.720Z,16.22
2023-05-10T17:31:25.188Z,16.26
2023-05-10T17:33:51.693Z,16.31
2023-05-10T17:36:18.157Z,16.21
2023-05-10T17:38:44.695Z,16.20
2023-05-10T17:41:11.103Z,16.24
2023-05-10T17:43:37.496Z,16.29
2023-05-10T17:46:04.137Z,16.23
2023-05-10T17:48:30.855Z,16.10
2023-05-10T17:50:57.381Z,15.97
2023-05-10T17:53:24.430Z,15.97
2023-05-10T17:55:52.084Z,15.98
2023-05-10T17:58:18.496Z,15.97
2023-05-10T18:00:44.894Z,15.87
2023-05-10T18:03:11.603Z,15.89
2023-05-10T18:05:38.993Z,15.98
2023-05-10T18:08:05.962Z,15.84
2023-05-10T18:10:32.479Z,15.81
2023-05-10T18:12:58.982Z,15.69
2023-05-10T18:15:26.597Z,15.68
2023-05-10T18:17:53.217Z,15.67
2023-05-10T18:20:22.654Z,15.65
2023-05-10T18:22:49.165Z,15.62
2023-05-10T18:25:15.766Z,15.62
2023-05-10T18:27:42.360Z,15.61
2023-05-10T18:30:10.107Z,15.62
2023-05-10T18:32:38.268Z,15.59
2023-05-10T18:35:05.110Z,15.48
2023-05-10T18:37:31.855Z,15.32
2023-05-10T18:39:58.268Z,15.37
2023-05-10T18:42:24.737Z,15.30
2023-05-10T18:44:51.116Z,15.15
2023-05-10T18:47:17.636Z,15.05
2023-05-10T18:49:46.101Z,15.06
2023-05-10T18:52:12.962Z,15.03
2023-05-10T18:54:39.310Z,15.05
2023-05-10T18:57:06.070Z,15.05
2023-05-10T18:59:32.656Z,15.07
2023-05-10T19:01:59.279Z,15.04
2023-05-10T19:04:25.838Z,15.01
2023-05-10T19:06:52.856Z,14.95
2023-05-10T19:09:20.202Z,14.94
2023-05-10T19:11:46.722Z,14.86
2023-05-10T19:14:13.111Z,14.78
2023-05-10T19:16:41.793Z,14.72
2023-05-10T19:19:09.543Z,14.69
2023-05-10T19:21:36.140Z,14.61
2023-05-10T19:24:02.724Z,14.57
2023-05-10T19:26:29.436Z,14.54
2023-05-10T19:28:57.461Z,14.54
2023-05-10T19:31:24.614Z,14.45
2023-05-10T19:33:51.088Z,14.46
2023-05-10T19:36:17.554Z,14.44
2023-05-10T19:38:44.025Z,14.41
2023-05-10T19:41:11.421Z,14.37
2023-05-10T19:43:38.969Z,14.36
2023-05-10T19:46:05.876Z,14.35
2023-05-10T19:48:32.523Z,14.39
2023-05-10T19:51:03.068Z,14.36
2023-05-10T19:53:29.819Z,14.32
2023-05-10T19:55:56.422Z,14.26
2023-05-10T19:58:23.636Z,14.18
2023-05-10T20:00:50.190Z,14.10
2023-05-10T20:03:16.655Z,14.09
2023-05-10T20:05:43.058Z,14.06
2023-05-10T20:08:09.412Z,14.03
2023-05-10T20:10:35.796Z,13.95
2023-05-10T20:13:02.168Z,13.90
2023-05-10T20:15:29.150Z,13.87
2023-05-10T20:17:55.829Z,13.83
2023-05-10T20:20:22.699Z,13.79
2023-05-10T20:22:49.756Z,13.73
2023-05-10T20:25:17.388Z,13.72
2023-05-10T20:27:43.740Z,13.72
2023-05-10T20:30:10.692Z,13.73
2023-05-10T20:32:38.048Z,13.74
2023-05-10T20:35:05.568Z,13.72
2023-05-10T20:37:32.067Z,13.73
2023-05-10T20:39:58.703Z,13.74
2023-05-10T20:42:25.100Z,13.72
2023-05-10T20:44:51.636Z,13.72
2023-05-10T20:47:18.167Z,13.71
2023-05-10T20:49:44.564Z,13.71
2023-05-10T20:52:11.033Z,13.70
2023-05-10T20:54:37.409Z,13.70
2023-05-10T20:57:03.781Z,13.71
2023-05-10T20:59:30.577Z,13.71
2023-05-10T21:01:57.660Z,13.73
2023-05-10T21:04:25.780Z,13.73
2023-05-10T21:06:53.002Z,13.72
2023-05-10T21:09:19.550Z,13.72
2023-05-10T21:11:46.094Z,13.70
2023-05-10T21:14:12.498Z,13.71
2023-05-10T21:16:38.991Z,13.71
2023-05-10T21:19:07.159Z,13.72
2023-05-10T21:21:33.882Z,13.68
2023-05-10T21:24:00.249Z,13.66
2023-05-10T21:26:26.697Z,13.64
2023-05-10T21:28:53.185Z,13.60
2023-05-10T21:31:19.724Z,13.61
2023-05-10T21:33:46.117Z,13.59
2023-05-10T21:36:13.031Z,13.58
2023-05-10T21:38:39.677Z,13.55
2023-05-10T21:41:07.746Z,13.53
2023-05-10T21:43:34.276Z,13.50
2023-05-10T21:46:01.066Z,13.46
2023-05-10T21:48:27.450Z,13.46
2023-05-10T21:50:53.838Z,13.41
2023-05-10T21:53:20.594Z,13.37
2023-05-10T21:55:48.153Z,13.34
2023-05-10T21:58:14.547Z,13.34
2023-05-10T22:00:40.937Z,13.31
2023-05-10T22:03:07.411Z,13.26
2023-05-10T22:05:33.881Z,13.26
2023-05-10T22:08:00.273Z,13.24
2023-05-10T22:10:26.678Z,13.20
2023-05-10T22:12:53.111Z,13.15
2023-05-10T22:15:19.781Z,13.12
2023-05-10T22:17:46.263Z,13.14
2023-05-10T22:20:12.854Z,13.15
2023-05-10T22:22:39.219Z,13.16
2023-05-10T22:25:07.424Z,13.15
2023-05-10T22:27:34.395Z,13.14
2023-05-10T22:30:01.445Z,13.13
2023-05-10T22:32:28.285Z,13.11
2023-05-10T22:34:54.920Z,13.07
2023-05-10T22:37:21.373Z,13.03
2023-05-10T22:39:48.620Z,12.98
2023-05-10T22:42:15.611Z,13.02
2023-05-10T22:44:43.314Z,12.95
2023-05-10T22:47:09.787Z,12.96
2023-05-10T22:49:36.466Z,12.99
2023-05-10T22:52:02.982Z,12.99
2023-05-10T22:54:29.430Z,13.00
2023-05-10T22:56:56.602Z,12.99
2023-05-10T22:59:23.676Z,12.97
2023-05-10T23:01:50.711Z,12.94
2023-05-10T23:04:17.295Z,12.91
2023-05-10T23:06:43.776Z,12.88
2023-05-10T23:09:10.235Z,12.90
2023-05-10T23:11:36.712Z,12.87
2023-05-10T23:14:03.500Z,12.85
2023-05-10T23:16:30.763Z,12.83
2023-05-10T23:18:57.309Z,12.79
2023-05-10T23:21:25.243Z,12.73
2023-05-10T23:23:52.500Z,12.70
2023-05-10T23:26:19.056Z,12.72
2023-05-10T23:28:45.440Z,12.73
2023-05-10T23:31:11.823Z,12.76
2023-05-10T23:33:38.245Z,12.75
2023-05-10T23:36:04.846Z,12.70
2023-05-10T23:38:31.669Z,12.69
2023-05-10T23:40:58.107Z,12.71
2023-05-10T23:43:25.267Z,12.71
2023-05-10T23:45:56.016Z,12.74
2023-05-10T23:48:22.747Z,12.77
2023-05-10T23:50:49.435Z,12.77
2023-05-10T23:53:16.612Z,12.78
2023-05-10T23:55:43.170Z,12.73
2023-05-10T23:58:09.667Z,12.70
